createdAt,value
2022-10-20T00:01:27.700Z,7.30
2022-10-20T00:03:55.751Z,7.30
2022-10-20T00:06:27.154Z,7.30
2022-10-20T00:08:56.680Z,7.40
2022-10-20T00:11:25.195Z,7.30
2022-10-20T00:13:54.476Z,7.30
2022-10-20T00:16:22.601Z,7.20
2022-10-20T00:18:49.998Z,7.20
2022-10-20T00:21:24.020Z,7.20
2022-10-20T00:23:51.276Z,7.20
2022-10-20T00:26:24.675Z,7.20
2022-10-20T00:28:52.798Z,7.10
2022-10-20T00:31:21.733Z,7.10
2022-10-20T00:33:48.619Z,7.00
2022-10-20T00:36:18.090Z,6.90
2022-10-20T00:38:45.374Z,6.90
2022-10-20T00:41:15.456Z,6.80
2022-10-20T00:43:56.581Z,6.70
2022-10-20T00:46:37.658Z,6.70
2022-10-20T00:49:20.969Z,6.70
2022-10-20T00:51:48.799Z,6.60
2022-10-20T00:54:22.188Z,6.60
2022-10-20T00:56:49.818Z,6.50
2022-10-20T00:59:22.409Z,6.40
2022-10-20T01:01:49.822Z,6.40
2022-10-20T01:04:17.774Z,6.40
2022-10-20T01:06:44.521Z,6.40
2022-10-20T01:09:11.548Z,6.40
2022-10-20T01:12:15.511Z,6.40
2022-10-20T01:15:26.761Z,6.30
2022-10-20T01:18:44.184Z,6.30
2022-10-20T01:21:50.211Z,6.20
2022-10-20T01:24:50.808Z,6.20
2022-10-20T01:27:42.838Z,6.10
2022-10-20T01:30:17.791Z,6.10
2022-10-20T01:33:11.665Z,6.10
2022-10-20T01:36:20.652Z,6.00
2022-10-20T01:39:09.378Z,6.00
2022-10-20T01:41:48.851Z,5.90
2022-10-20T01:44:18.158Z,5.80
2022-10-20T01:46:46.381Z,5.90
2022-10-20T01:49:14.606Z,5.90
2022-10-20T01:54:31.413Z,5.80
2022-10-20T01:57:37.348Z,5.80
2022-10-20T02:00:08.601Z,5.70
2022-10-20T02:03:05.519Z,5.60
2022-10-20T02:06:23.735Z,5.60
2022-10-20T02:08:55.486Z,5.60
2022-10-20T02:11:57.157Z,5.60
2022-10-20T02:14:23.981Z,5.50
2022-10-20T02:17:00.496Z,5.50
2022-10-20T02:19:34.236Z,5.50
2022-10-20T02:22:02.204Z,5.50
2022-10-20T02:24:35.799Z,5.50
2022-10-20T02:27:11.314Z,5.50
2022-10-20T02:29:49.810Z,5.50
2022-10-20T02:32:18.339Z,5.50
2022-10-20T02:34:45.482Z,5.50
2022-10-20T02:37:12.350Z,5.50
2022-10-20T02:39:39.219Z,5.40
2022-10-20T02:42:06.094Z,5.40
2022-10-20T02:44:32.880Z,5.40
2022-10-20T02:46:59.628Z,5.40
2022-10-20T02:49:27.324Z,5.40
2022-10-20T02:51:54.054Z,5.40
2022-10-20T02:54:20.998Z,5.30
2022-10-20T02:56:47.739Z,5.30
2022-10-20T02:59:19.209Z,5.30
2022-10-20T03:01:46.598Z,5.20
2022-10-20T03:04:14.376Z,5.20
2022-10-20T03:06:41.720Z,5.20
2022-10-20T03:09:08.579Z,5.20
2022-10-20T03:11:35.634Z,5.20
2022-10-20T03:14:02.559Z,5.20
2022-10-20T03:16:29.749Z,5.20
2022-10-20T03:18:59.956Z,5.10
2022-10-20T03:21:30.199Z,5.10
2022-10-20T03:23:56.986Z,5.10
2022-10-20T03:26:23.817Z,5.10
2022-10-20T03:28:50.554Z,5.10
2022-10-20T03:31:17.457Z,5.10
2022-10-20T03:33:44.186Z,5.00
2022-10-20T03:36:11.495Z,5.00
2022-10-20T03:38:41.150Z,5.00
2022-10-20T03:41:07.909Z,5.00
2022-10-20T03:43:34.698Z,5.00
2022-10-20T03:46:08.489Z,4.90
2022-10-20T03:48:36.319Z,4.90
2022-10-20T03:51:04.753Z,4.90
2022-10-20T03:53:32.283Z,4.80
2022-10-20T03:55:59.070Z,4.90
2022-10-20T03:58:25.812Z,4.80
2022-10-20T04:00:53.052Z,4.80
2022-10-20T04:03:19.794Z,4.80
2022-10-20T04:05:46.529Z,4.80
2022-10-20T04:10:44.892Z,4.80
2022-10-20T04:13:11.645Z,4.80
2022-10-20T04:15:38.353Z,4.70
2022-10-20T04:18:05.166Z,4.70
2022-10-20T04:20:31.968Z,4.70
2022-10-20T04:22:58.681Z,4.70
2022-10-20T04:25:25.404Z,4.70
2022-10-20T04:27:52.137Z,4.70
2022-10-20T04:30:19.105Z,4.70
2022-10-20T04:32:45.821Z,4.70
2022-10-20T04:35:12.580Z,4.70
2022-10-20T04:37:39.761Z,4.60
2022-10-20T04:40:07.558Z,4.60
2022-10-20T04:42:34.313Z,4.60
2022-10-20T04:45:01.102Z,4.50
2022-10-20T04:47:33.176Z,4.50
2022-10-20T04:50:00.111Z,4.40
2022-10-20T04:52:29.432Z,4.40
2022-10-20T04:54:56.198Z,4.40
2022-10-20T04:57:23.417Z,4.40
2022-10-20T04:59:50.471Z,4.40
2022-10-20T05:02:17.785Z,4.40
2022-10-20T05:04:46.298Z,4.40
2022-10-20T05:07:13.148Z,4.40
2022-10-20T05:09:40.091Z,4.40
2022-10-20T05:12:06.918Z,4.40
2022-10-20T05:14:33.749Z,4.40
2022-10-20T05:17:00.621Z,4.40
2022-10-20T05:19:27.704Z,4.40
2022-10-20T05:21:54.508Z,4.40
2022-10-20T05:24:22.844Z,4.40
2022-10-20T05:26:50.424Z,4.30
2022-10-20T05:29:17.192Z,4.30
2022-10-20T05:31:44.356Z,4.40
2022-10-20T05:34:11.770Z,4.40
2022-10-20T05:36:38.918Z,4.40
2022-10-20T05:39:06.322Z,4.40
2022-10-20T05:41:37.778Z,4.30
2022-10-20T05:44:08.890Z,4.30
2022-10-20T05:46:43.783Z,4.20
2022-10-20T05:49:15.664Z,4.20
2022-10-20T05:51:43.730Z,4.20
2022-10-20T05:54:13.002Z,4.20
2022-10-20T05:56:40.079Z,4.20
2022-10-20T05:59:06.925Z,4.20
2022-10-20T06:01:48.199Z,4.20
2022-10-20T06:04:24.832Z,4.20
2022-10-20T06:06:53.400Z,4.30
2022-10-20T06:09:22.681Z,4.30
2022-10-20T06:11:50.127Z,4.30
2022-10-20T06:14:17.709Z,4.40
2022-10-20T06:16:44.708Z,4.40
2022-10-20T06:19:11.459Z,4.40
2022-10-20T06:21:38.757Z,4.50
2022-10-20T06:24:06.900Z,4.50
2022-10-20T06:26:38.465Z,4.50
2022-10-20T06:29:09.601Z,4.50
2022-10-20T06:31:44.695Z,4.60
2022-10-20T06:34:19.581Z,4.60
2022-10-20T06:36:48.318Z,4.60
2022-10-20T06:39:18.772Z,4.70
2022-10-20T06:41:54.010Z,4.70
2022-10-20T06:44:23.881Z,4.80
2022-10-20T06:46:54.671Z,4.80
2022-10-20T06:49:23.113Z,4.90
2022-10-20T06:51:50.265Z,5.00
2022-10-20T06:54:17.590Z,5.00
2022-10-20T06:56:44.519Z,5.10
2022-10-20T06:59:11.665Z,5.10
2022-10-20T07:01:39.630Z,5.30
2022-10-20T07:04:11.597Z,5.50
2022-10-20T07:06:42.227Z,5.60
2022-10-20T07:09:18.450Z,5.80
2022-10-20T07:11:45.751Z,5.90
2022-10-20T07:14:13.842Z,6.00
2022-10-20T07:16:40.731Z,6.20
2022-10-20T07:19:07.673Z,6.30
2022-10-20T07:21:39.191Z,6.40
2022-10-20T07:24:09.481Z,6.50
2022-10-20T07:26:39.262Z,6.60
2022-10-20T07:29:06.302Z,6.60
2022-10-20T07:31:40.049Z,6.70
2022-10-20T07:34:26.770Z,6.80
2022-10-20T07:36:56.215Z,6.90
2022-10-20T07:39:23.989Z,7.00
2022-10-20T07:41:50.887Z,7.20
2022-10-20T07:44:18.388Z,7.20
2022-10-20T07:46:45.204Z,7.20
2022-10-20T07:49:39.288Z,7.10
2022-10-20T07:51:58.838Z,7.10
2022-10-20T07:54:25.901Z,7.20
2022-10-20T07:56:53.094Z,7.20
2022-10-20T07:59:19.842Z,7.20
2022-10-20T08:01:47.021Z,7.20
2022-10-20T08:04:13.927Z,7.30
2022-10-20T08:06:40.699Z,7.30
2022-10-20T08:09:08.366Z,7.30
2022-10-20T08:11:35.883Z,7.30
2022-10-20T08:14:02.997Z,7.40
2022-10-20T08:16:31.935Z,7.40
2022-10-20T08:21:39.411Z,7.60
2022-10-20T08:24:06.420Z,7.70
2022-10-20T08:26:33.165Z,7.60
2022-10-20T08:29:00.010Z,7.60
2022-10-20T08:31:26.809Z,7.80
2022-10-20T08:33:53.630Z,8.00
2022-10-20T08:36:21.018Z,8.10
2022-10-20T08:38:48.397Z,8.00
2022-10-20T08:41:25.708Z,7.90
2022-10-20T08:43:55.515Z,8.00
2022-10-20T08:46:46.003Z,8.10
2022-10-20T08:49:23.383Z,8.20
2022-10-20T08:51:50.273Z,8.30
2022-10-20T08:54:17.797Z,8.50
2022-10-20T08:56:46.346Z,8.60
2022-10-20T08:59:39.225Z,8.60
2022-10-20T09:02:17.098Z,8.50
2022-10-20T09:04:54.691Z,8.60
2022-10-20T09:07:36.062Z,8.50
2022-10-20T09:10:31.582Z,8.60
2022-10-20T09:12:59.653Z,8.70
2022-10-20T09:15:27.145Z,8.60
2022-10-20T09:18:10.107Z,8.70
2022-10-20T09:20:43.552Z,8.80
2022-10-20T09:23:41.986Z,8.80
2022-10-20T09:26:37.565Z,8.90
2022-10-20T09:29:14.370Z,9.10
2022-10-20T09:31:54.278Z,9.10
2022-10-20T09:34:34.071Z,9.10
2022-10-20T09:37:07.035Z,9.10
2022-10-20T09:39:54.995Z,9.10
2022-10-20T09:42:30.539Z,9.10
2022-10-20T09:45:06.704Z,9.00
2022-10-20T09:47:35.019Z,8.90
2022-10-20T09:50:05.830Z,9.00
2022-10-20T09:52:47.268Z,9.10
2022-10-20T09:55:42.381Z,9.20
2022-10-20T09:58:27.174Z,9.30
2022-10-20T10:01:15.972Z,9.50
2022-10-20T10:03:48.973Z,9.70
2022-10-20T10:06:46.118Z,9.30
2022-10-20T10:09:40.139Z,9.10
2022-10-20T10:12:12.951Z,9.00
2022-10-20T10:15:32.425Z,9.20
2022-10-20T10:18:00.541Z,9.40
2022-10-20T10:20:36.797Z,9.60
2022-10-20T10:23:22.286Z,9.60
2022-10-20T10:25:51.754Z,9.60
2022-10-20T10:28:40.377Z,9.70
2022-10-20T10:31:09.766Z,9.70
2022-10-20T10:33:36.595Z,9.70
2022-10-20T10:36:14.132Z,9.80
2022-10-20T10:38:40.908Z,9.90
2022-10-20T10:41:36.981Z,10.00
2022-10-20T10:44:12.523Z,9.90
2022-10-20T10:47:14.202Z,10.00
2022-10-20T10:50:08.937Z,10.00
2022-10-20T10:53:12.715Z,10.10
2022-10-20T10:55:48.853Z,10.10
2022-10-20T10:58:39.330Z,10.10
2022-10-20T11:01:06.044Z,10.10
2022-10-20T11:03:57.009Z,10.20
2022-10-20T11:06:55.680Z,10.30
2022-10-20T11:09:55.578Z,10.40
2022-10-20T11:12:37.314Z,10.60
2022-10-20T11:15:40.033Z,10.90
2022-10-20T11:18:24.807Z,11.00
2022-10-20T11:21:26.218Z,11.10
2022-10-20T11:24:48.129Z,11.10
2022-10-20T11:27:20.845Z,11.40
2022-10-20T11:30:04.342Z,11.50
2022-10-20T11:32:37.952Z,11.70
2022-10-20T11:35:18.308Z,11.80
2022-10-20T11:38:18.272Z,11.90
2022-10-20T11:40:55.660Z,12.00
2022-10-20T11:43:46.754Z,12.10
2022-10-20T11:46:22.036Z,12.20
2022-10-20T11:48:53.235Z,12.20
2022-10-20T11:51:32.254Z,12.20
2022-10-20T11:54:23.035Z,12.30
2022-10-20T11:57:03.074Z,12.40
2022-10-20T11:59:56.954Z,12.40
2022-10-20T12:03:15.270Z,12.30
2022-10-20T12:05:53.879Z,12.20
2022-10-20T12:08:48.458Z,12.10
2022-10-20T12:11:32.221Z,12.10
2022-10-20T12:14:26.174Z,12.10
2022-10-20T12:16:55.486Z,12.20
2022-10-20T12:19:27.700Z,12.20
2022-10-20T12:22:28.709Z,12.50
2022-10-20T12:24:55.409Z,12.50
2022-10-20T12:27:27.500Z,12.70
2022-10-20T12:30:22.833Z,12.80
2022-10-20T12:33:11.614Z,12.80
2022-10-20T12:36:01.591Z,12.90
2022-10-20T12:38:30.317Z,12.90
2022-10-20T12:41:00.442Z,12.90
2022-10-20T12:43:49.252Z,12.90
2022-10-20T12:46:23.899Z,13.10
2022-10-20T12:48:57.408Z,13.10
2022-10-20T12:51:37.596Z,13.10
2022-10-20T12:54:41.978Z,13.10
2022-10-20T12:57:30.327Z,13.20
2022-10-20T12:59:57.159Z,13.20
2022-10-20T13:02:23.890Z,13.20
2022-10-20T13:05:01.430Z,13.10
2022-10-20T13:08:20.797Z,13.10
2022-10-20T13:10:48.258Z,13.00
2022-10-20T13:13:18.014Z,13.00
2022-10-20T13:15:47.496Z,13.00
2022-10-20T13:18:20.249Z,13.10
2022-10-20T13:20:58.195Z,13.20
2022-10-20T13:23:39.553Z,13.20
2022-10-20T13:26:35.067Z,13.30
2022-10-20T13:29:02.210Z,13.30
2022-10-20T13:32:01.646Z,13.30
2022-10-20T13:34:52.791Z,13.00
2022-10-20T13:37:51.418Z,12.90
2022-10-20T13:40:36.627Z,12.90
2022-10-20T13:43:12.659Z,13.00
2022-10-20T13:46:05.201Z,13.10
2022-10-20T13:49:00.878Z,13.20
2022-10-20T13:51:32.993Z,13.10
2022-10-20T13:54:06.059Z,13.10
2022-10-20T13:56:40.960Z,13.10
2022-10-20T13:59:29.257Z,13.10
2022-10-20T14:02:14.172Z,12.90
2022-10-20T14:04:41.552Z,12.80
2022-10-20T14:07:13.566Z,12.80
2022-10-20T14:09:45.295Z,12.80
2022-10-20T14:12:24.016Z,12.80
2022-10-20T14:14:51.327Z,12.80
2022-10-20T14:17:21.963Z,12.90
2022-10-20T14:19:49.927Z,12.80
2022-10-20T14:22:25.221Z,12.90
2022-10-20T14:24:56.419Z,12.80
2022-10-20T14:27:27.310Z,12.90
2022-10-20T14:29:54.808Z,12.90
2022-10-20T14:32:33.703Z,12.90
2022-10-20T14:35:26.863Z,12.90
2022-10-20T14:38:04.345Z,12.90
2022-10-20T14:40:36.838Z,12.80
2022-10-20T14:43:12.716Z,12.70
2022-10-20T14:45:39.542Z,12.70
2022-10-20T14:48:14.508Z,12.60
2022-10-20T14:50:41.352Z,12.50
2022-10-20T14:53:32.601Z,12.50
2022-10-20T14:56:02.602Z,12.40
2022-10-20T14:59:00.133Z,12.40
2022-10-20T15:01:32.430Z,12.40
2022-10-20T15:06:39.995Z,12.40
2022-10-20T15:09:39.676Z,12.30
2022-10-20T15:12:13.047Z,12.20
2022-10-20T15:14:41.935Z,12.10
2022-10-20T15:17:31.696Z,12.00
2022-10-20T15:19:58.701Z,12.00
2022-10-20T15:22:25.479Z,12.00
2022-10-20T15:24:52.322Z,12.00
2022-10-20T15:27:19.094Z,11.80
2022-10-20T15:29:51.502Z,11.80
2022-10-20T15:32:18.719Z,11.70
2022-10-20T15:34:45.455Z,11.60
2022-10-20T15:37:12.295Z,11.60
2022-10-20T15:39:39.074Z,11.60
2022-10-20T15:42:11.032Z,11.50
2022-10-20T15:44:38.215Z,11.50
2022-10-20T15:47:05.023Z,11.50
2022-10-20T15:49:31.859Z,11.50
2022-10-20T15:51:58.854Z,11.40
2022-10-20T15:54:25.787Z,11.30
2022-10-20T15:56:52.635Z,11.20
2022-10-20T15:59:19.425Z,11.20
2022-10-20T16:01:46.264Z,11.20
2022-10-20T16:04:28.016Z,11.10
2022-10-20T16:06:58.934Z,11.10
2022-10-20T16:09:28.781Z,11.00
2022-10-20T16:11:55.650Z,11.00
2022-10-20T16:14:22.491Z,10.90
2022-10-20T16:16:49.586Z,10.80
2022-10-20T16:19:16.530Z,10.70
2022-10-20T16:21:43.281Z,10.70
2022-10-20T16:24:11.624Z,10.60
2022-10-20T16:26:38.527Z,10.60
2022-10-20T16:29:05.270Z,10.60
2022-10-20T16:31:32.050Z,10.50
2022-10-20T16:34:00.097Z,10.40
2022-10-20T16:36:26.943Z,10.40
2022-10-20T16:38:57.638Z,10.40
2022-10-20T16:41:24.960Z,10.40
2022-10-20T16:43:53.167Z,10.40
2022-10-20T16:46:21.326Z,10.30
2022-10-20T16:48:48.469Z,10.30
2022-10-20T16:51:16.681Z,10.20
2022-10-20T16:53:43.957Z,10.20
2022-10-20T16:56:15.261Z,10.10
2022-10-20T16:58:45.166Z,10.10
2022-10-20T17:01:13.924Z,10.00
2022-10-20T17:03:47.285Z,10.00
2022-10-20T17:06:16.563Z,9.90
2022-10-20T17:08:43.507Z,9.90
2022-10-20T17:11:20.769Z,9.90
2022-10-20T17:13:47.888Z,9.90
2022-10-20T17:16:29.923Z,9.90
2022-10-20T17:18:59.355Z,9.90
2022-10-20T17:21:28.255Z,9.90
2022-10-20T17:23:55.235Z,9.90
2022-10-20T17:26:25.189Z,10.00
2022-10-20T17:28:57.515Z,10.00
2022-10-20T17:31:24.760Z,9.90
2022-10-20T17:33:51.976Z,9.90
2022-10-20T17:36:19.672Z,9.90
2022-10-20T17:38:46.445Z,9.90
2022-10-20T17:41:15.516Z,9.90
2022-10-20T17:43:43.027Z,9.90
2022-10-20T17:46:13.509Z,10.00
2022-10-20T17:48:40.403Z,10.00
2022-10-20T17:51:18.085Z,10.00
2022-10-20T17:53:47.966Z,10.00
2022-10-20T17:56:24.611Z,10.00
2022-10-20T17:58:51.917Z,9.90
2022-10-20T18:01:27.791Z,9.90
2022-10-20T18:04:01.968Z,9.80
2022-10-20T18:06:34.381Z,9.70
2022-10-20T18:09:10.675Z,9.70
2022-10-20T18:11:41.729Z,9.60
2022-10-20T18:14:08.738Z,9.60
2022-10-20T18:16:37.900Z,9.60
2022-10-20T18:19:05.485Z,9.60
2022-10-20T18:21:33.151Z,9.60
2022-10-20T18:24:04.741Z,9.50
2022-10-20T18:26:34.974Z,9.50
2022-10-20T18:29:05.132Z,9.50
2022-10-20T18:31:33.807Z,9.50
2022-10-20T18:34:06.862Z,9.50
2022-10-20T18:36:38.114Z,9.60
2022-10-20T18:39:08.708Z,9.60
2022-10-20T18:41:39.230Z,9.60
2022-10-20T18:44:11.888Z,9.50
2022-10-20T18:46:40.005Z,9.50
2022-10-20T18:49:08.885Z,9.50
2022-10-20T18:51:36.909Z,9.50
2022-10-20T18:54:06.669Z,9.60
2022-10-20T18:56:34.459Z,9.60
2022-10-20T18:59:08.231Z,9.60
2022-10-20T19:01:38.399Z,9.60
2022-10-20T19:04:06.718Z,9.60
2022-10-20T19:06:41.020Z,9.60
2022-10-20T19:09:14.698Z,9.70
2022-10-20T19:11:42.157Z,9.60
2022-10-20T19:14:10.308Z,9.60
2022-10-20T19:16:37.743Z,9.60
2022-10-20T19:19:07.093Z,9.60
2022-10-20T19:21:35.025Z,9.60
2022-10-20T19:24:23.611Z,9.50
2022-10-20T19:26:57.598Z,9.40
2022-10-20T19:29:35.377Z,9.40
2022-10-20T19:32:04.364Z,9.40
2022-10-20T19:34:39.368Z,9.40
2022-10-20T19:37:07.374Z,9.30
2022-10-20T19:39:38.575Z,9.30
2022-10-20T19:42:07.484Z,9.20
2022-10-20T19:44:35.014Z,9.20
2022-10-20T19:47:02.492Z,9.20
2022-10-20T19:49:29.351Z,9.10
2022-10-20T19:51:56.178Z,9.10
2022-10-20T19:54:23.505Z,9.10
2022-10-20T19:56:50.233Z,9.10
2022-10-20T19:59:17.270Z,9.10
2022-10-20T20:01:44.033Z,9.10
2022-10-20T20:04:10.866Z,9.00
2022-10-20T20:06:38.178Z,8.90
2022-10-20T20:09:08.705Z,9.00
2022-10-20T20:11:37.890Z,8.90
2022-10-20T20:14:14.008Z,8.90
2022-10-20T20:16:41.695Z,8.90
2022-10-20T20:19:08.603Z,8.80
2022-10-20T20:21:35.677Z,8.80
2022-10-20T20:24:04.663Z,8.80
2022-10-20T20:26:35.552Z,8.80
2022-10-20T20:29:02.915Z,8.80
2022-10-20T20:31:31.399Z,8.80
2022-10-20T20:33:58.270Z,8.80
2022-10-20T20:36:27.540Z,8.80
2022-10-20T20:38:58.091Z,8.90
2022-10-20T20:41:27.949Z,8.80
2022-10-20T20:43:55.271Z,8.80
2022-10-20T20:46:24.534Z,8.90
2022-10-20T20:48:51.904Z,8.90
2022-10-20T20:51:19.061Z,8.90
2022-10-20T20:53:46.013Z,8.90
2022-10-20T20:56:16.174Z,9.00
2022-10-20T20:58:48.839Z,9.00
2022-10-20T21:01:17.351Z,9.00
2022-10-20T21:03:45.347Z,9.00
2022-10-20T21:06:16.035Z,9.00
2022-10-20T21:08:47.707Z,9.00
2022-10-20T21:11:18.989Z,9.00
2022-10-20T21:13:47.239Z,9.00
2022-10-20T21:16:27.992Z,9.00
2022-10-20T21:18:58.645Z,9.10
2022-10-20T21:21:32.416Z,9.00
2022-10-20T21:24:01.049Z,9.00
2022-10-20T21:26:29.925Z,9.00
2022-10-20T21:28:57.548Z,9.10
2022-10-20T21:31:26.997Z,9.10
2022-10-20T21:34:03.418Z,9.10
2022-10-20T21:36:32.728Z,9.10
2022-10-20T21:39:00.113Z,9.20
2022-10-20T21:41:30.425Z,9.20
2022-10-20T21:43:59.331Z,9.30
2022-10-20T21:46:35.938Z,9.30
2022-10-20T21:49:06.841Z,9.30
2022-10-20T21:51:40.355Z,9.30
2022-10-20T21:56:47.218Z,9.30
2022-10-20T21:59:26.793Z,9.40
2022-10-20T22:01:57.367Z,9.40
2022-10-20T22:04:27.396Z,9.40
2022-10-20T22:06:55.353Z,9.40
2022-10-20T22:09:23.232Z,9.40
2022-10-20T22:11:55.198Z,9.40
2022-10-20T22:14:22.967Z,9.40
2022-10-20T22:16:49.944Z,9.50
2022-10-20T22:19:20.670Z,9.50
2022-10-20T22:21:49.997Z,9.50
2022-10-20T22:24:18.871Z,9.50
2022-10-20T22:26:46.295Z,9.40
2022-10-20T22:29:13.380Z,9.40
2022-10-20T22:31:41.194Z,9.30
2022-10-20T22:34:08.855Z,9.40
2022-10-20T22:36:35.911Z,9.40
2022-10-20T22:39:03.663Z,9.40
2022-10-20T22:41:30.469Z,9.30
2022-10-20T22:43:58.001Z,9.40
2022-10-20T22:46:25.154Z,9.40
2022-10-20T22:48:51.938Z,9.40
2022-10-20T22:51:19.045Z,9.30
2022-10-20T22:53:45.865Z,9.40
2022-10-20T22:56:20.474Z,9.30
2022-10-20T22:58:47.795Z,9.30
2022-10-20T23:01:20.980Z,9.20
2022-10-20T23:03:47.954Z,9.30
2022-10-20T23:06:21.421Z,9.30
2022-10-20T23:08:51.595Z,9.30
2022-10-20T23:11:19.561Z,9.30
2022-10-20T23:13:47.299Z,9.40
2022-10-20T23:16:15.182Z,9.40
2022-10-20T23:18:42.701Z,9.30
2022-10-20T23:21:10.038Z,9.30
2022-10-20T23:23:37.860Z,9.30
2022-10-20T23:26:06.526Z,9.30
2022-10-20T23:28:35.092Z,9.30
2022-10-20T23:31:12.874Z,9.30
2022-10-20T23:33:42.178Z,9.30
2022-10-20T23:36:10.716Z,9.30
2022-10-20T23:38:37.630Z,9.30
2022-10-20T23:41:05.168Z,9.30
2022-10-20T23:43:32.650Z,9.30
2022-10-20T23:45:59.974Z,9.40
2022-10-20T23:48:27.251Z,9.30
2022-10-20T23:50:54.433Z,9.30
2022-10-20T23:53:21.353Z,9.30
2022-10-20T23:55:48.137Z,9.40
2022-10-20T23:58:15.057Z,9.40
